Time;durP1;ratioP1;P1;durP2;ratioP2;P2;SDS_P1;SDS_P2;PMS_P1;PMS_P2;Temp;Humidity;BMP_temperature;BMP_pressure;BME280_temperature;BME280_humidity;BME280_pressure;Samples;Min_cycle;Max_cycle;Signal;HPM_P1;HPM_P2
2023/03/28 00:02:01;;;;;;;;;;;;;;;;;;5095187;28;19931;-69
2023/03/28 00:04:28;;;;;;;;;;;;;;;;;;5095599;28;19919;-69
2023/03/28 00:06:54;;;;;;;;;;;;;;;;;;5094275;28;19934;-69
2023/03/28 00:09:20;;;;;;;;;;;;;;;;;;5095249;28;20364;-69
2023/03/28 00:11:46;;;;;;;;;;;;;;;;;;5095652;28;19987;-69
2023/03/28 00:14:13;;;;;;;;;;;;;;;;;;5095483;28;19962;-69
2023/03/28 00:16:39;;;;;;;;;;;;;;;;;;5095072;28;19915;-69
2023/03/28 00:19:04;;;;;;;;;;;;;;;;;;5095376;28;19908;-69
2023/03/28 00:21:30;;;;;;;;;;;;;;;;;;5094022;28;19908;-69
2023/03/28 00:24:00;;;;;;;;;;;;;;;;;;5094826;28;20053;-69
2023/03/28 00:26:26;;;;;;;;;;;;;;;;;;5093949;28;19912;-69
2023/03/28 00:28:53;;;;;;;;;;;;;;;;;;5095262;28;19912;-69
2023/03/28 00:31:19;;;;;;;;;;;;;;;;;;5094763;28;19908;-69
2023/03/28 00:33:46;;;;;;;;;;;;;;;;;;5095347;28;19915;-70
2023/03/28 00:36:13;;;;;;;;;;;;;;;;;;5094658;28;20414;-70
2023/03/28 00:38:39;;;;;;;;;;;;;;;;;;5095097;28;19916;-69
2023/03/28 00:41:08;;;;;;;;;;;;;;;;;;5093577;28;20292;-69
2023/03/28 00:43:34;;;;;;;;;;;;;;;;;;5094466;28;19914;-69
2023/03/28 00:46:00;;;;;;;;;;;;;;;;;;5094722;28;20006;-69
2023/03/28 00:48:27;;;;;;;;;;;;;;;;;;5094795;28;19908;-69
2023/03/28 00:50:53;;;;;;;;;;;;;;;;;;5094462;28;19919;-69
2023/03/28 00:53:19;;;;;;;;;;;;;;;;;;5095290;28;19912;-69
2023/03/28 00:55:45;;;;;;;;;;;;;;;;;;5094694;28;19984;-69
2023/03/28 00:58:11;;;;;;;;;;;;;;;;;;5094246;28;19909;-69
2023/03/28 01:00:37;;;;;;;;;;;;;;;;;;5094954;28;19909;-69
2023/03/28 01:03:05;;;;;;;;;;;;;;;;;;5094517;28;19977;-69
2023/03/28 01:05:31;;;;;;;;;;;;;;;;;;5094062;28;19923;-69
2023/03/28 01:07:57;;;;;;;;;;;;;;;;;;5094456;28;19908;-69
2023/03/28 01:10:23;;;;;;;;;;;;;;;;;;5094440;28;19965;-70
2023/03/28 01:12:49;;;;;;;;;;;;;;;;;;5093956;28;19908;-69
2023/03/28 01:15:15;;;;;;;;;;;;;;;;;;5093957;28;19915;-69
2023/03/28 01:17:41;;;;;;;;;;;;;;;;;;5094248;28;19998;-69
2023/03/28 01:20:07;;;;;;;;;;;;;;;;;;5093851;28;19954;-69
2023/03/28 01:22:33;;;;;;;;;;;;;;;;;;5094147;28;19926;-69
2023/03/28 01:24:59;;;;;;;;;;;;;;;;;;5092865;28;20352;-69
2023/03/28 01:27:25;;;;;;;;;;;;;;;;;;5093872;28;20307;-69
2023/03/28 01:29:53;;;;;;;;;;;;;;;;;;5094128;28;19908;-69
2023/03/28 01:32:19;;;;;;;;;;;;;;;;;;5094044;28;19908;-69
2023/03/28 01:34:45;;;;;;;;;;;;;;;;;;5093647;28;19909;-69
2023/03/28 01:37:11;;;;;;;;;;;;;;;;;;5092684;28;19908;-69
2023/03/28 01:39:37;;;;;;;;;;;;;;;;;;5092358;28;19915;-69
2023/03/28 01:42:03;;;;;;;;;;;;;;;;;;5093926;28;19920;-69
2023/03/28 01:44:29;;;;;;;;;;;;;;;;;;5092498;28;19920;-69
2023/03/28 01:46:55;;;;;;;;;;;;;;;;;;5093630;28;19908;-69
2023/03/28 01:49:21;;;;;;;;;;;;;;;;;;5092699;28;19908;-69
2023/03/28 01:51:47;;;;;;;;;;;;;;;;;;5093901;28;19991;-70
2023/03/28 01:54:13;;;;;;;;;;;;;;;;;;5093584;28;19919;-68
2023/03/28 01:56:39;;;;;;;;;;;;;;;;;;5094446;28;19912;-68
2023/03/28 01:59:06;;;;;;;;;;;;;;;;;;5093922;28;20352;-69
2023/03/28 02:01:35;;;;;;;;;;;;;;;;;;5093513;28;20003;-69
2023/03/28 02:04:01;;;;;;;;;;;;;;;;;;5092452;28;19953;-69
2023/03/28 02:06:27;;;;;;;;;;;;;;;;;;5093760;28;19908;-68
2023/03/28 02:08:54;;;;;;;;;;;;;;;;;;5092102;28;19912;-69
2023/03/28 02:11:20;;;;;;;;;;;;;;;;;;5093669;28;19953;-68
2023/03/28 02:13:46;;;;;;;;;;;;;;;;;;5093671;28;19990;-69
2023/03/28 02:16:12;;;;;;;;;;;;;;;;;;5092024;28;19909;-68
2023/03/28 02:18:38;;;;;;;;;;;;;;;;;;5093931;28;19916;-69
2023/03/28 02:21:03;;;;;;;;;;;;;;;;;;5092341;28;19915;-69
2023/03/28 02:23:30;;;;;;;;;;;;;;;;;;5091904;28;20284;-68
2023/03/28 02:25:56;;;;;;;;;;;;;;;;;;5094087;28;20315;-68
2023/03/28 02:28:22;;;;;;;;;;;;;;;;;;5096995;28;19908;-68
2023/03/28 02:30:48;;;;;;;;;;;;;;;;;;5097122;28;19915;-69
2023/03/28 02:33:14;;;;;;;;;;;;;;;;;;5096134;28;20380;-69
2023/03/28 02:35:40;;;;;;;;;;;;;;;;;;5097378;28;19914;-69
2023/03/28 02:38:05;;;;;;;;;;;;;;;;;;5096936;28;19934;-69
2023/03/28 02:40:31;;;;;;;;;;;;;;;;;;5097215;28;19908;-68
2023/03/28 02:43:00;;;;;;;;;;;;;;;;;;5096828;28;19908;-69
2023/03/28 02:45:26;;;;;;;;;;;;;;;;;;5096941;28;20069;-68
2023/03/28 02:47:51;;;;;;;;;;;;;;;;;;5097185;28;19965;-69
2023/03/28 02:50:17;;;;;;;;;;;;;;;;;;5096718;28;19912;-69
2023/03/28 02:52:50;;;;;;;;;;;;;;;;;;5095738;28;19915;-69
2023/03/28 02:55:16;;;;;;;;;;;;;;;;;;5097344;28;19909;-69
2023/03/28 02:57:42;;;;;;;;;;;;;;;;;;5096475;28;19916;-69
2023/03/28 03:00:10;;;;;;;;;;;;;;;;;;5095647;28;20360;-69
2023/03/28 03:02:36;;;;;;;;;;;;;;;;;;5096999;28;20377;-69
2023/03/28 03:05:02;;;;;;;;;;;;;;;;;;5095053;28;19920;-69
2023/03/28 03:07:29;;;;;;;;;;;;;;;;;;5095451;28;20310;-69
2023/03/28 03:09:55;;;;;;;;;;;;;;;;;;5097330;28;20349;-69
2023/03/28 03:12:22;;;;;;;;;;;;;;;;;;5096301;28;19931;-69
2023/03/28 03:14:49;;;;;;;;;;;;;;;;;;5096592;28;20352;-69
2023/03/28 03:17:15;;;;;;;;;;;;;;;;;;5095318;28;19908;-69
2023/03/28 03:19:42;;;;;;;;;;;;;;;;;;5096128;28;19908;-69
2023/03/28 03:22:08;;;;;;;;;;;;;;;;;;5096431;28;20361;-69
2023/03/28 03:24:35;;;;;;;;;;;;;;;;;;5096651;28;19919;-69
2023/03/28 03:27:01;;;;;;;;;;;;;;;;;;5095970;28;20280;-69
2023/03/28 03:29:27;;;;;;;;;;;;;;;;;;5096377;28;19914;-69
2023/03/28 03:31:53;;;;;;;;;;;;;;;;;;5096875;28;19912;-69
2023/03/28 03:34:19;;;;;;;;;;;;;;;;;;5095949;28;19915;-70
2023/03/28 03:36:45;;;;;;;;;;;;;;;;;;5094903;28;20394;-70
2023/03/28 03:39:11;;;;;;;;;;;;;;;;;;5095501;28;19908;-70
2023/03/28 03:41:37;;;;;;;;;;;;;;;;;;5096160;28;19908;-69
2023/03/28 03:44:03;;;;;;;;;;;;;;;;;;5095818;28;19961;-69
2023/03/28 03:46:29;;;;;;;;;;;;;;;;;;5094334;28;19998;-69
2023/03/28 03:48:55;;;;;;;;;;;;;;;;;;5094757;28;20322;-69
2023/03/28 03:51:21;;;;;;;;;;;;;;;;;;5095947;28;19912;-69
2023/03/28 03:53:49;;;;;;;;;;;;;;;;;;5095848;28;19958;-69
2023/03/28 03:56:15;;;;;;;;;;;;;;;;;;5096402;28;19953;-69
2023/03/28 03:58:41;;;;;;;;;;;;;;;;;;5095780;28;19908;-69
2023/03/28 04:01:12;;;;;;;;;;;;;;;;;;5095392;28;19915;-68
2023/03/28 04:03:38;;;;;;;;;;;;;;;;;;5095893;28;19908;-70
2023/03/28 04:06:04;;;;;;;;;;;;;;;;;;5096088;28;20394;-69
2023/03/28 04:08:30;;;;;;;;;;;;;;;;;;5095682;28;20364;-69
2023/03/28 04:10:56;;;;;;;;;;;;;;;;;;5095577;28;19947;-69
2023/03/28 04:13:22;;;;;;;;;;;;;;;;;;5095821;28;19912;-70
2023/03/28 04:15:48;;;;;;;;;;;;;;;;;;5094161;28;20334;-70
2023/03/28 04:18:16;;;;;;;;;;;;;;;;;;5094134;28;19999;-69
2023/03/28 04:20:42;;;;;;;;;;;;;;;;;;5095391;28;19961;-69
2023/03/28 04:23:08;;;;;;;;;;;;;;;;;;5094957;28;19912;-70
2023/03/28 04:25:34;;;;;;;;;;;;;;;;;;5095153;28;19962;-70
2023/03/28 04:28:00;;;;;;;;;;;;;;;;;;5095162;28;19908;-68
2023/03/28 04:30:26;;;;;;;;;;;;;;;;;;5094758;28;20049;-69
2023/03/28 04:32:53;;;;;;;;;;;;;;;;;;5094795;28;19969;-68
2023/03/28 04:35:19;;;;;;;;;;;;;;;;;;5094947;28;19908;-68
2023/03/28 04:37:46;;;;;;;;;;;;;;;;;;5093711;28;19953;-69
2023/03/28 04:40:14;;;;;;;;;;;;;;;;;;5094257;28;19981;-69
2023/03/28 04:42:40;;;;;;;;;;;;;;;;;;5093561;28;19912;-70
2023/03/28 04:45:07;;;;;;;;;;;;;;;;;;5094636;28;19920;-69
2023/03/28 04:47:33;;;;;;;;;;;;;;;;;;5093885;28;19951;-69
2023/03/28 04:49:59;;;;;;;;;;;;;;;;;;5093096;28;19954;-69
2023/03/28 04:52:25;;;;;;;;;;;;;;;;;;5094689;28;19912;-69
2023/03/28 04:54:51;;;;;;;;;;;;;;;;;;5093881;28;19908;-69
2023/03/28 04:57:17;;;;;;;;;;;;;;;;;;5092072;28;19915;-69
2023/03/28 04:59:43;;;;;;;;;;;;;;;;;;5092546;28;19916;-69
2023/03/28 05:02:09;;;;;;;;;;;;;;;;;;5092624;28;19909;-69
2023/03/28 05:04:35;;;;;;;;;;;;;;;;;;5074235;28;19973;-69
2023/03/28 05:07:03;;;;;;;;;;;;;;;;;;5085762;28;19916;-79
2023/03/28 05:09:30;;;;;;;;;;;;;;;;;;5077084;28;19913;-80
2023/03/28 05:11:56;;;;;;;;;;;;;;;;;;5074338;28;20008;-84
2023/03/28 05:14:22;;;;;;;;;;;;;;;;;;5074567;28;19951;-82
2023/03/28 05:16:48;;;;;;;;;;;;;;;;;;5074129;28;19924;-70
2023/03/28 05:19:14;;;;;;;;;;;;;;;;;;5089178;28;19908;-70
2023/03/28 05:21:41;;;;;;;;;;;;;;;;;;5073000;28;19943;-70
2023/03/28 05:24:07;;;;;;;;;;;;;;;;;;5086230;28;19914;-70
2023/03/28 05:26:33;;;;;;;;;;;;;;;;;;5073956;28;19916;-70
2023/03/28 05:28:59;;;;;;;;;;;;;;;;;;5072203;28;19916;-71
2023/03/28 05:31:27;;;;;;;;;;;;;;;;;;5069692;28;19933;-70
2023/03/28 05:33:53;;;;;;;;;;;;;;;;;;5052375;28;20013;-72
2023/03/28 05:36:19;;;;;;;;;;;;;;;;;;5069237;28;19948;-71
2023/03/28 05:38:45;;;;;;;;;;;;;;;;;;5046242;28;19916;-70
2023/03/28 05:41:11;;;;;;;;;;;;;;;;;;5052855;28;19923;-69
2023/03/28 05:43:37;;;;;;;;;;;;;;;;;;5069864;28;19912;-70
2023/03/28 05:46:03;;;;;;;;;;;;;;;;;;5087616;28;20361;-70
2023/03/28 05:48:30;;;;;;;;;;;;;;;;;;5090425;28;19912;-70
2023/03/28 05:50:56;;;;;;;;;;;;;;;;;;5095345;28;19916;-72
2023/03/28 05:53:22;;;;;;;;;;;;;;;;;;5088767;28;20190;-72
2023/03/28 05:55:48;;;;;;;;;;;;;;;;;;5090144;28;19919;-72
2023/03/28 05:58:15;;;;;;;;;;;;;;;;;;5087629;28;20363;-69
2023/03/28 06:00:41;;;;;;;;;;;;;;;;;;5078089;28;19920;-69
2023/03/28 06:03:08;;;;;;;;;;;;;;;;;;5085443;28;19919;-69
2023/03/28 06:05:34;;;;;;;;;;;;;;;;;;5091475;28;20364;-70
2023/03/28 06:08:00;;;;;;;;;;;;;;;;;;5092768;28;20549;-70
2023/03/28 06:10:26;;;;;;;;;;;;;;;;;;5094454;28;19908;-70
2023/03/28 06:12:52;;;;;;;;;;;;;;;;;;5093694;28;19920;-70
2023/03/28 06:15:19;;;;;;;;;;;;;;;;;;5085936;28;20574;-69
2023/03/28 06:17:45;;;;;;;;;;;;;;;;;;5100173;28;19966;-71
2023/03/28 06:20:12;;;;;;;;;;;;;;;;;;5089290;28;19908;-70
2023/03/28 06:22:38;;;;;;;;;;;;;;;;;;5097529;28;20268;-70
2023/03/28 06:25:04;;;;;;;;;;;;;;;;;;5091446;28;19924;-72
2023/03/28 06:27:30;;;;;;;;;;;;;;;;;;5091147;28;20380;-70
2023/03/28 06:29:57;;;;;;;;;;;;;;;;;;5094867;28;19922;-73
2023/03/28 06:32:23;;;;;;;;;;;;;;;;;;5088995;28;19916;-71
2023/03/28 06:34:49;;;;;;;;;;;;;;;;;;5093395;28;19916;-70
2023/03/28 06:37:15;;;;;;;;;;;;;;;;;;5092310;28;20027;-72
2023/03/28 06:39:41;;;;;;;;;;;;;;;;;;5090232;28;20062;-71
2023/03/28 06:42:07;;;;;;;;;;;;;;;;;;5089005;28;19919;-72
2023/03/28 06:44:34;;;;;;;;;;;;;;;;;;5092222;28;19924;-70
2023/03/28 06:47:01;;;;;;;;;;;;;;;;;;5065512;28;20051;-70
2023/03/28 06:49:27;;;;;;;;;;;;;;;;;;5063720;28;20453;-70
2023/03/28 06:51:53;;;;;;;;;;;;;;;;;;5076557;28;19965;-70
2023/03/28 06:54:19;;;;;;;;;;;;;;;;;;5071656;28;19912;-70
2023/03/28 06:56:45;;;;;;;;;;;;;;;;;;5075483;28;19912;-72
2023/03/28 06:59:11;;;;;;;;;;;;;;;;;;5069007;28;20012;-69
2023/03/28 07:01:37;;;;;;;;;;;;;;;;;;5077513;28;20027;-71
2023/03/28 07:04:03;;;;;;;;;;;;;;;;;;5082838;28;19915;-70
2023/03/28 07:06:33;;;;;;;;;;;;;;;;;;5071794;28;21502;-66
2023/03/28 07:08:59;;;;;;;;;;;;;;;;;;5075550;28;19920;-68
2023/03/28 07:11:26;;;;;;;;;;;;;;;;;;5049134;28;19916;-67
2023/03/28 07:13:52;;;;;;;;;;;;;;;;;;5050795;28;19913;-70
2023/03/28 07:16:18;;;;;;;;;;;;;;;;;;5052055;28;19909;-69
2023/03/28 07:18:44;;;;;;;;;;;;;;;;;;5045706;28;19931;-69
2023/03/28 07:21:10;;;;;;;;;;;;;;;;;;5036095;28;20041;-69
2023/03/28 07:23:38;;;;;;;;;;;;;;;;;;5057110;28;19919;-70
2023/03/28 07:26:05;;;;;;;;;;;;;;;;;;5073656;28;19989;-70
2023/03/28 07:28:31;;;;;;;;;;;;;;;;;;5072810;28;20310;-70
2023/03/28 07:30:59;;;;;;;;;;;;;;;;;;5070942;28;20288;-70
2023/03/28 07:33:25;;;;;;;;;;;;;;;;;;5063271;28;19934;-72
2023/03/28 07:35:51;;;;;;;;;;;;;;;;;;5037207;28;20373;-70
2023/03/28 07:38:17;;;;;;;;;;;;;;;;;;5075678;28;19958;-70
2023/03/28 07:40:43;;;;;;;;;;;;;;;;;;5062340;28;20003;-70
2023/03/28 07:43:09;;;;;;;;;;;;;;;;;;5062232;28;19913;-72
2023/03/28 07:45:36;;;;;;;;;;;;;;;;;;5069159;28;19928;-70
2023/03/28 07:48:06;;;;;;;;;;;;;;;;;;5063380;28;19917;-71
2023/03/28 07:50:32;;;;;;;;;;;;;;;;;;5064146;28;19917;-72
2023/03/28 07:53:00;;;;;;;;;;;;;;;;;;5059307;28;19935;-72
2023/03/28 07:55:26;;;;;;;;;;;;;;;;;;5066525;28;20377;-69
2023/03/28 07:57:52;;;;;;;;;;;;;;;;;;5065883;28;20442;-70
2023/03/28 08:00:21;;;;;;;;;;;;;;;;;;5056444;28;20399;-68
2023/03/28 08:02:48;;;;;;;;;;;;;;;;;;5053210;28;19970;-70
2023/03/28 08:05:16;;;;;;;;;;;;;;;;;;5089840;28;20011;-71
2023/03/28 08:07:44;;;;;;;;;;;;;;;;;;5080759;28;20062;-70
2023/03/28 08:10:10;;;;;;;;;;;;;;;;;;5076106;28;20286;-70
2023/03/28 08:12:36;;;;;;;;;;;;;;;;;;5075360;28;19908;-68
2023/03/28 08:15:02;;;;;;;;;;;;;;;;;;5070430;28;19919;-69
2023/03/28 08:17:28;;;;;;;;;;;;;;;;;;5070430;28;19913;-68
2023/03/28 08:19:54;;;;;;;;;;;;;;;;;;5081228;28;19955;-70
2023/03/28 08:22:20;;;;;;;;;;;;;;;;;;5068037;28;19912;-69
2023/03/28 08:24:46;;;;;;;;;;;;;;;;;;5070528;28;19970;-68
2023/03/28 08:27:12;;;;;;;;;;;;;;;;;;5065826;28;20602;-69
2023/03/28 08:29:38;;;;;;;;;;;;;;;;;;5071131;28;20324;-68
2023/03/28 08:32:06;;;;;;;;;;;;;;;;;;5072550;28;20281;-67
2023/03/28 08:34:32;;;;;;;;;;;;;;;;;;5072777;28;20319;-69
2023/03/28 08:36:58;;;;;;;;;;;;;;;;;;5070314;28;19958;-70
2023/03/28 08:39:24;;;;;;;;;;;;;;;;;;5052772;28;19913;-69
2023/03/28 08:41:50;;;;;;;;;;;;;;;;;;5082474;28;19916;-70
2023/03/28 08:44:16;;;;;;;;;;;;;;;;;;5080859;28;20009;-69
2023/03/28 08:46:42;;;;;;;;;;;;;;;;;;5092875;28;20299;-69
2023/03/28 08:49:08;;;;;;;;;;;;;;;;;;5091647;28;19909;-70
2023/03/28 08:51:34;;;;;;;;;;;;;;;;;;5089017;28;19912;-69
2023/03/28 08:54:01;;;;;;;;;;;;;;;;;;5091535;28;20332;-70
2023/03/28 08:56:27;;;;;;;;;;;;;;;;;;5089826;28;19915;-68
2023/03/28 08:58:53;;;;;;;;;;;;;;;;;;5088905;28;19916;-68
2023/03/28 09:01:22;;;;;;;;;;;;;;;;;;5090225;28;19912;-67
2023/03/28 09:03:49;;;;;;;;;;;;;;;;;;5085221;28;19934;-67
2023/03/28 09:06:15;;;;;;;;;;;;;;;;;;5088794;28;20062;-68
2023/03/28 09:08:41;;;;;;;;;;;;;;;;;;5087597;28;20010;-70
2023/03/28 09:11:07;;;;;;;;;;;;;;;;;;5088429;28;20072;-69
2023/03/28 09:13:33;;;;;;;;;;;;;;;;;;5090536;28;19912;-68
2023/03/28 09:16:00;;;;;;;;;;;;;;;;;;5096821;28;20371;-69
2023/03/28 09:18:27;;;;;;;;;;;;;;;;;;5081391;28;19923;-68
2023/03/28 09:20:53;;;;;;;;;;;;;;;;;;5089541;28;19916;-68
2023/03/28 09:23:19;;;;;;;;;;;;;;;;;;5090378;28;20579;-68
2023/03/28 09:25:45;;;;;;;;;;;;;;;;;;5091539;28;20326;-68
2023/03/28 09:28:11;;;;;;;;;;;;;;;;;;5089351;28;19916;-69
2023/03/28 09:30:37;;;;;;;;;;;;;;;;;;5090854;28;19943;-70
2023/03/28 09:33:03;;;;;;;;;;;;;;;;;;5092102;28;20443;-70
2023/03/28 09:35:29;;;;;;;;;;;;;;;;;;5089760;28;20008;-70
2023/03/28 09:37:57;;;;;;;;;;;;;;;;;;5084295;28;20356;-69
2023/03/28 09:40:25;;;;;;;;;;;;;;;;;;5087849;28;19969;-71
2023/03/28 09:42:51;;;;;;;;;;;;;;;;;;5088085;28;19912;-72
2023/03/28 09:45:21;;;;;;;;;;;;;;;;;;5085488;28;20276;-71
2023/03/28 09:47:50;;;;;;;;;;;;;;;;;;5103409;28;20059;-70
2023/03/28 09:50:16;;;;;;;;;;;;;;;;;;5090467;28;19908;-70
2023/03/28 09:52:42;;;;;;;;;;;;;;;;;;5089281;28;20355;-78
2023/03/28 09:55:08;;;;;;;;;;;;;;;;;;5089048;28;19919;-76
2023/03/28 09:57:34;;;;;;;;;;;;;;;;;;5090553;28;19963;-71
2023/03/28 10:00:00;;;;;;;;;;;;;;;;;;5088797;28;19923;-68
2023/03/28 10:02:26;;;;;;;;;;;;;;;;;;5088820;28;19912;-69
2023/03/28 10:04:52;;;;;;;;;;;;;;;;;;5089124;28;19950;-68
2023/03/28 10:07:21;;;;;;;;;;;;;;;;;;5087422;28;19917;-71
2023/03/28 10:09:47;;;;;;;;;;;;;;;;;;5090191;28;19914;-67
2023/03/28 10:12:13;;;;;;;;;;;;;;;;;;5084867;28;20042;-68
2023/03/28 10:14:39;;;;;;;;;;;;;;;;;;5089169;28;20039;-68
2023/03/28 10:17:05;;;;;;;;;;;;;;;;;;5089387;28;19916;-69
2023/03/28 10:19:31;;;;;;;;;;;;;;;;;;5085418;28;19966;-69
2023/03/28 10:21:57;;;;;;;;;;;;;;;;;;5091253;28;19915;-67
2023/03/28 10:24:23;;;;;;;;;;;;;;;;;;5091497;28;19916;-71
2023/03/28 10:26:49;;;;;;;;;;;;;;;;;;5090542;28;19923;-70
2023/03/28 10:29:15;;;;;;;;;;;;;;;;;;5090942;28;20391;-68
2023/03/28 10:31:41;;;;;;;;;;;;;;;;;;5091570;28;19912;-71
2023/03/28 10:34:07;;;;;;;;;;;;;;;;;;5090354;28;19913;-73
2023/03/28 10:36:33;;;;;;;;;;;;;;;;;;5091608;28;19989;-72
2023/03/28 10:38:59;;;;;;;;;;;;;;;;;;5091309;28;19979;-70
2023/03/28 10:41:25;;;;;;;;;;;;;;;;;;5090595;28;19912;-69
2023/03/28 10:43:51;;;;;;;;;;;;;;;;;;5081350;28;20007;-69
2023/03/28 10:46:17;;;;;;;;;;;;;;;;;;5091412;28;19923;-70
2023/03/28 10:48:43;;;;;;;;;;;;;;;;;;5093106;28;19919;-69
2023/03/28 10:51:09;;;;;;;;;;;;;;;;;;5093870;28;19912;-71
2023/03/28 10:53:36;;;;;;;;;;;;;;;;;;5094487;28;19923;-70
2023/03/28 10:56:02;;;;;;;;;;;;;;;;;;5088418;28;20279;-69
2023/03/28 10:58:28;;;;;;;;;;;;;;;;;;5098229;28;19995;-69
2023/03/28 11:00:54;;;;;;;;;;;;;;;;;;5099121;28;20018;-67
2023/03/28 11:03:20;;;;;;;;;;;;;;;;;;5090863;28;19999;-69
2023/03/28 11:05:46;;;;;;;;;;;;;;;;;;5100430;28;19920;-68
2023/03/28 11:08:12;;;;;;;;;;;;;;;;;;5093967;28;19916;-67
2023/03/28 11:10:38;;;;;;;;;;;;;;;;;;5090142;28;19916;-66
2023/03/28 11:13:09;;;;;;;;;;;;;;;;;;5085824;28;20390;-68
2023/03/28 11:16:54;;;;;;;;;;;;;;;;;;5114805;27;20263;-72
2023/03/28 11:19:20;;;;;;;;;;;;;;;;;;5109519;28;19920;-74
2023/03/28 11:21:46;;;;;;;;;;;;;;;;;;5109309;28;19914;-74
2023/03/28 11:24:12;;;;;;;;;;;;;;;;;;5107447;28;19951;-74
2023/03/28 11:26:41;;;;;;;;;;;;;;;;;;5109070;28;20272;-74
2023/03/28 11:30:05;;;;;;;;;;;;;;;;;;5089559;27;19931;-73
2023/03/28 11:32:31;;;;;;;;;;;;;;;;;;5090050;28;19912;-71
2023/03/28 11:34:57;;;;;;;;;;;;;;;;;;5085816;28;20360;-69
2023/03/28 11:37:23;;;;;;;;;;;;;;;;;;5088394;28;20278;-69
2023/03/28 11:39:49;;;;;;;;;;;;;;;;;;5088127;28;19999;-68
2023/03/28 11:42:17;;;;;;;;;;;;;;;;;;5089214;28;20276;-68
2023/03/28 11:44:43;;;;;;;;;;;;;;;;;;5085187;28;19917;-69
2023/03/28 11:47:09;;;;;;;;;;;;;;;;;;5080176;28;19912;-68
2023/03/28 11:49:35;;;;;;;;;;;;;;;;;;5084050;28;20448;-68
2023/03/28 11:52:01;;;;;;;;;;;;;;;;;;5083634;28;19999;-67
2023/03/28 11:54:27;;;;;;;;;;;;;;;;;;5078034;28;19917;-68
2023/03/28 11:56:53;;;;;;;;;;;;;;;;;;5076132;28;19948;-68
2023/03/28 11:59:19;;;;;;;;;;;;;;;;;;5076616;28;19912;-68
2023/03/28 12:01:44;;;;;;;;;;;;;;;;;;5073948;28;19917;-69
2023/03/28 12:04:10;;;;;;;;;;;;;;;;;;5067553;28;19913;-69
2023/03/28 12:06:36;;;;;;;;;;;;;;;;;;5084475;28;19912;-73
2023/03/28 12:09:02;;;;;;;;;;;;;;;;;;5078833;28;20293;-72
2023/03/28 12:11:28;;;;;;;;;;;;;;;;;;5088398;28;19916;-72
2023/03/28 12:13:54;;;;;;;;;;;;;;;;;;5094481;28;19969;-74
2023/03/28 12:16:22;;;;;;;;;;;;;;;;;;5098035;28;19916;-74
2023/03/28 12:18:48;;;;;;;;;;;;;;;;;;5088470;28;20300;-71
2023/03/28 12:21:14;;;;;;;;;;;;;;;;;;5085793;28;19916;-71
2023/03/28 12:23:40;;;;;;;;;;;;;;;;;;5087323;28;19913;-70
2023/03/28 12:30:34;;;;;;;;;;;;;;;;;;5142152;27;19915;-70
2023/03/28 12:33:00;;;;;;;;;;;;;;;;;;5113988;28;20002;-69
2023/03/28 12:35:26;;;;;;;;;;;;;;;;;;5125617;28;19915;-69
2023/03/28 12:37:53;;;;;;;;;;;;;;;;;;5125363;28;19915;-70
2023/03/28 12:40:22;;;;;;;;;;;;;;;;;;5126943;28;19947;-70
2023/03/28 12:42:48;;;;;;;;;;;;;;;;;;5127331;28;19950;-71
2023/03/28 12:47:16;;;;;;;;;;;;;;;;;;5108633;27;20281;-70
2023/03/28 12:49:42;;;;;;;;;;;;;;;;;;5108534;28;19918;-70
2023/03/28 12:54:14;;;;;;;;;;;;;;;;;;5144036;27;19922;-72
2023/03/28 12:56:40;;;;;;;;;;;;;;;;;;5130168;28;19943;-71
2023/03/28 13:00:19;;;;;;;;;;;;;;;;;;5130116;27;20285;-71
2023/03/28 13:05:25;;;;;;;;;;;;;;;;;;5151195;27;20009;-70
2023/03/28 13:07:51;;;;;;;;;;;;;;;;;;5152916;27;19980;-68
2023/03/28 13:10:17;;;;;;;;;;;;;;;;;;5152610;27;19908;-68
2023/03/28 13:12:44;;;;;;;;;;;;;;;;;;5152833;27;19907;-68
2023/03/28 13:15:10;;;;;;;;;;;;;;;;;;5152786;27;20416;-70
2023/03/28 13:17:38;;;;;;;;;;;;;;;;;;5152255;27;20255;-68
2023/03/28 13:20:06;;;;;;;;;;;;;;;;;;5152719;27;19912;-69
2023/03/28 13:22:32;;;;;;;;;;;;;;;;;;5152614;27;20359;-69
2023/03/28 13:24:57;;;;;;;;;;;;;;;;;;5152080;27;19916;-70
2023/03/28 13:27:23;;;;;;;;;;;;;;;;;;5152576;27;19911;-70
2023/03/28 13:29:49;;;;;;;;;;;;;;;;;;5152369;27;19907;-70
2023/03/28 13:32:15;;;;;;;;;;;;;;;;;;5152450;27;19908;-70
2023/03/28 13:34:41;;;;;;;;;;;;;;;;;;5152394;27;19907;-69
2023/03/28 13:37:07;;;;;;;;;;;;;;;;;;5152026;27;19914;-70
2023/03/28 13:39:33;;;;;;;;;;;;;;;;;;5153163;27;19914;-70
2023/03/28 13:41:59;;;;;;;;;;;;;;;;;;5152291;27;19915;-69
2023/03/28 13:44:25;;;;;;;;;;;;;;;;;;5151906;27;19919;-70
2023/03/28 13:47:49;;;;;;;;;;;;;;;;;;5112491;27;20360;-70
2023/03/28 13:53:00;;;;;;;;;;;;;;;;;;5091058;27;19923;-71
2023/03/28 13:56:47;;;;;;;;;;;;;;;;;;5092141;27;19919;-71
2023/03/28 14:01:36;;;;;;;;;;;;;;;;;;5153579;27;20014;-71
2023/03/28 14:04:02;;;;;;;;;;;;;;;;;;5152953;27;19958;-71
2023/03/28 14:06:28;;;;;;;;;;;;;;;;;;5152666;27;20363;-70
2023/03/28 14:09:04;;;;;;;;;;;;;;;;;;5112546;27;19938;-71
2023/03/28 14:16:32;;;;;;;;;;;;;;;;;;5111992;27;19923;-69
2023/03/28 14:18:58;;;;;;;;;;;;;;;;;;5111684;28;19998;-70
2023/03/28 14:21:24;;;;;;;;;;;;;;;;;;5111233;28;19908;-70
2023/03/28 14:23:50;;;;;;;;;;;;;;;;;;5111949;28;19908;-69
2023/03/28 14:26:16;;;;;;;;;;;;;;;;;;5111389;28;19915;-69
2023/03/28 14:28:42;;;;;;;;;;;;;;;;;;5111808;28;20305;-69
2023/03/28 14:31:09;;;;;;;;;;;;;;;;;;5111494;28;20011;-69
2023/03/28 14:35:14;;;;;;;;;;;;;;;;;;5090962;27;19916;-69
2023/03/28 14:37:40;;;;;;;;;;;;;;;;;;5091705;28;19913;-70
2023/03/28 14:40:07;;;;;;;;;;;;;;;;;;5089903;28;20383;-70
2023/03/28 14:48:04;;;;;;;;;;;;;;;;;;5111555;27;20291;-70
2023/03/28 14:50:30;;;;;;;;;;;;;;;;;;5112335;28;19919;-70
2023/03/28 14:53:13;;;;;;;;;;;;;;;;;;5153553;27;19922;-69
2023/03/28 14:55:40;;;;;;;;;;;;;;;;;;5152722;27;19911;-69
2023/03/28 15:05:00;;;;;;;;;;;;;;;;;;5112472;27;19923;-69
2023/03/28 15:07:26;;;;;;;;;;;;;;;;;;5111656;28;19994;-69
2023/03/28 15:10:12;;;;;;;;;;;;;;;;;;5111533;27;19912;-70
2023/03/28 15:12:38;;;;;;;;;;;;;;;;;;5111678;28;20291;-70
2023/03/28 15:15:05;;;;;;;;;;;;;;;;;;5111705;28;19912;-70
2023/03/28 15:19:35;;;;;;;;;;;;;;;;;;5153431;27;19998;-69
2023/03/28 15:22:01;;;;;;;;;;;;;;;;;;5152907;27;19954;-69
2023/03/28 15:24:27;;;;;;;;;;;;;;;;;;5152390;27;19952;-69
2023/03/28 15:26:53;;;;;;;;;;;;;;;;;;5152783;27;19915;-69
2023/03/28 15:29:19;;;;;;;;;;;;;;;;;;5152719;27;19993;-69
2023/03/28 15:31:45;;;;;;;;;;;;;;;;;;5152320;27;20335;-69
2023/03/28 15:34:11;;;;;;;;;;;;;;;;;;5152678;27;19907;-69
2023/03/28 15:36:37;;;;;;;;;;;;;;;;;;5152208;27;19998;-70
2023/03/28 15:39:02;;;;;;;;;;;;;;;;;;5152520;27;19919;-69
2023/03/28 15:41:30;;;;;;;;;;;;;;;;;;5152516;27;20003;-69
2023/03/28 15:43:56;;;;;;;;;;;;;;;;;;5151931;27;19908;-69
2023/03/28 15:46:22;;;;;;;;;;;;;;;;;;5152655;27;19915;-69
2023/03/28 15:48:48;;;;;;;;;;;;;;;;;;5152369;27;19954;-71
2023/03/28 15:51:14;;;;;;;;;;;;;;;;;;5133388;27;20299;-70
2023/03/28 15:53:40;;;;;;;;;;;;;;;;;;5152849;27;19907;-71
2023/03/28 15:56:06;;;;;;;;;;;;;;;;;;5133765;27;19930;-70
2023/03/28 15:58:32;;;;;;;;;;;;;;;;;;5133006;27;20383;-70
2023/03/28 16:03:16;;;;;;;;;;;;;;;;;;5153796;27;19907;-70
2023/03/28 16:05:42;;;;;;;;;;;;;;;;;;5152411;27;20292;-70
2023/03/28 16:08:08;;;;;;;;;;;;;;;;;;5152825;27;19907;-69
2023/03/28 16:10:33;;;;;;;;;;;;;;;;;;5152795;27;19984;-69
2023/03/28 16:13:00;;;;;;;;;;;;;;;;;;5152282;27;19930;-69
2023/03/28 16:15:25;;;;;;;;;;;;;;;;;;5152697;27;19908;-69
2023/03/28 16:17:54;;;;;;;;;;;;;;;;;;5134109;27;20356;-70
2023/03/28 16:20:20;;;;;;;;;;;;;;;;;;5152272;27;19907;-69
2023/03/28 16:22:46;;;;;;;;;;;;;;;;;;5133986;27;19922;-70
2023/03/28 16:25:12;;;;;;;;;;;;;;;;;;5152820;27;19907;-70
2023/03/28 16:27:38;;;;;;;;;;;;;;;;;;5152022;27;20002;-69
2023/03/28 16:30:06;;;;;;;;;;;;;;;;;;5152394;27;19908;-69
2023/03/28 16:32:32;;;;;;;;;;;;;;;;;;5133892;27;20008;-69
2023/03/28 16:34:58;;;;;;;;;;;;;;;;;;5133422;27;19907;-70
2023/03/28 16:37:24;;;;;;;;;;;;;;;;;;5152379;27;19947;-70
2023/03/28 16:39:50;;;;;;;;;;;;;;;;;;5133318;27;19907;-70
2023/03/28 16:42:17;;;;;;;;;;;;;;;;;;5152421;27;19938;-70
2023/03/28 16:44:43;;;;;;;;;;;;;;;;;;5152176;27;20294;-71
2023/03/28 16:47:09;;;;;;;;;;;;;;;;;;5133269;27;19937;-70
2023/03/28 16:49:34;;;;;;;;;;;;;;;;;;5133451;27;20351;-69
2023/03/28 16:52:00;;;;;;;;;;;;;;;;;;5151609;27;19908;-70
2023/03/28 16:54:26;;;;;;;;;;;;;;;;;;5151531;27;20013;-71
2023/03/28 16:56:52;;;;;;;;;;;;;;;;;;5151838;27;19915;-70
2023/03/28 16:59:19;;;;;;;;;;;;;;;;;;5133201;27;20320;-72
2023/03/28 17:01:46;;;;;;;;;;;;;;;;;;5129171;28;20263;-70
2023/03/28 17:04:12;;;;;;;;;;;;;;;;;;5131103;27;19915;-70
2023/03/28 17:06:38;;;;;;;;;;;;;;;;;;5129642;28;19912;-69
2023/03/28 17:09:04;;;;;;;;;;;;;;;;;;5130596;28;19915;-69
2023/03/28 17:11:31;;;;;;;;;;;;;;;;;;5129528;28;19995;-69
2023/03/28 17:13:57;;;;;;;;;;;;;;;;;;5118901;27;19962;-69
2023/03/28 17:16:23;;;;;;;;;;;;;;;;;;5116863;28;19912;-70
2023/03/28 17:18:49;;;;;;;;;;;;;;;;;;5117128;28;19960;-69
2023/03/28 17:21:16;;;;;;;;;;;;;;;;;;5117065;28;19912;-68
2023/03/28 17:23:42;;;;;;;;;;;;;;;;;;5115239;28;20407;-68
2023/03/28 17:26:07;;;;;;;;;;;;;;;;;;5115682;28;19943;-68